Weather observations for the past three days for
Pine Bluffs Municipal Airport
Metric (Imperial)
Date Time (mdt) Wind (kph) Vis. (km) Weather Sky Cond. Temperature (ºC) Relative Humidity Wind Chill (°C) Heat Index (°C) Pressure Precipitation (cm)
Air Dwpt 6 hour altimeter (cm) sea level (mb) 1 hr 3 hr 6 hr
Max. Min.
01 17:55 W 9 14.48 A Few Clouds FEW120 28.6 8.4 29.7 26.1 28% 27 76.33 0.0
01 17:35 SW 13 14.48 Partly Cloudy SCT120 29 9.3 29% 28 76.33 0.0
01 17:15 S 15 16.09 A Few Clouds FEW110 27.4 8.7 31% 27 76.35 0.0
01 16:55 SW 9 12.87 Mostly Cloudy FEW080 BKN110 27.3 10.9 36% 27 76.35 0.0
01 16:35 W 9 14.48 Light Rain FEW080 SCT110 26.2 11.6 40% 26 76.38 0.0
01 16:15 S 20 16.09 Mostly Cloudy SCT095 BKN120 27.3 9.5 33% 27 76.35 0.0
01 15:55 S 11 G 28 14.48 Mostly Cloudy SCT080 BKN095 BKN120 27.7 10.1 33% 27 76.38 0.0
01 15:35 SW 17 12.87 Mostly Cloudy FEW080 SCT090 BKN120 26.8 11 37% 27 76.38 0.0
01 15:15 SW 20 G 31 16.09 Mostly Cloudy SCT090 BKN100 28.7 9.9 31% 28 76.38 0.0
01 14:55 S 22 G 31 16.09 Mostly Cloudy SCT085 BKN120 29.1 10.1 31% 28 76.38 0.0
01 14:35 SW 24 G 33 16.09 A Few Clouds FEW090 29.7 10.4 30% 28 76.4 0.0
01 14:15 SW 17 G 30 16.09 Fair CLR 29.6 10.2 30% 28 76.4 0.0
01 13:55 SW 22 16.09 Fair CLR 29.3 10.7 32% 28 76.4 0.0
01 13:35 S 20 16.09 Fair CLR 28.6 10.8 33% 28 76.4 0.0
01 13:15 SW 15 16.09 Fair CLR 28.2 10.1 32% 27 76.43 0.0
01 12:55 S 17 G 31 16.09 Fair CLR 27 11.6 38% 27 76.45 0.0
01 12:35 S 19 16.09 Fair CLR 27.3 12.1 39% 27 76.48 0.0
01 12:15 SW 13 G 26 16.09 Fair CLR 27.4 9.1 32% 27 76.48 0.0
01 11:55 Vrbl 9 16.09 Fair CLR 25.8 8.6 25.9 15 34% 26 76.5 0.0
01 11:35 W 11 16.09 Fair CLR 24.5 9.1 38% 25 76.53 0.0
01 11:15 W 15 16.09 Fair CLR 24.3 8.9 38% 25 76.53 0.0
01 10:55 W 15 14.48 Fair CLR 23.9 9.7 41% 25 76.56 0.0
01 10:35 W 19 16.09 Fair CLR 23.7 9.2 40% 76.53 0.0
01 10:15 W 28 16.09 Fair CLR 23.8 9 39% 76.53 0.0
01 09:55 W 20 16.09 Fair CLR 23.7 11.6 47% 76.53 0.0
01 09:35 W 17 16.09 Fair CLR 22.2 11.9 52% 76.53 0.0
01 09:15 W 15 14.48 Fair CLR 21.1 12.1 57% 76.53 0.0
01 08:55 SW 13 14.48 Fair CLR 20.7 12.5 60% 76.53 0.0
01 08:35 W 13 14.48 Fair CLR 20.1 12.6 62% 76.56 0.0
01 08:15 SW 11 14.48 Fair CLR 18.6 13.6 73% 76.56 0.0
01 07:55 S 7 14.48 Fair CLR 16.2 14.2 88% 76.53 0.0
01 07:35 S 7 14.48 Fair CLR 15.7 14.1 90% 76.53 0.0
01 07:15 S 7 14.48 Fair CLR 16.2 12.9 81% 76.53 0.0
01 06:55 W 6 14.48 Fair CLR 15.2 13.6 90% 76.53 0.0
01 06:35 Calm 14.48 Fair CLR 15.1 13.4 90% 76.5 0.0
01 06:15 SW 6 16.09 Fair CLR 15.7 13.2 85% 76.48 0.0
01 05:55 SW 7 16.09 Fair CLR 15.5 13.5 18.2 15.5 88% 76.45 0.0
01 05:35 S 9 16.09 Fair CLR 16.2 13.1 82% 76.45 0.0
01 05:15 SW 13 16.09 A Few Clouds FEW120 16.2 13.2 83% 76.45 0.0
01 04:55 S 13 16.09 Mostly Cloudy BKN120 16 14 88% 76.48 0.0
01 04:35 SW 17 16.09 Partly Cloudy SCT120 17 13.2 78% 76.48 0.0
01 04:15 SW 9 16.09 Mostly Cloudy BKN120 16.6 13.9 84% 76.45 0.0
01 03:55 S 13 16.09 Overcast BKN100 OVC120 17.5 13.1 76% 76.48 0.0
01 03:35 SW 17 16.09 Overcast BKN095 OVC110 17.8 12.8 73% 76.5 0.0
01 03:15 W 17 16.09 Overcast OVC095 17.8 12.9 73% 76.5 0.0
01 02:55 W 15 16.09 Mostly Cloudy BKN100 BKN120 18.2 12.4 69% 76.5 0.0
01 02:35 SW 20 16.09 Mostly Cloudy FEW090 BKN120 18.1 12.3 69% 76.53 0.0
01 02:15 W 22 16.09 Overcast BKN095 OVC110 17.9 12.4 70% 76.53 0.0
01 01:55 W 11 16.09 Overcast OVC100 17.4 12.8 75% 76.53 0.0
01 01:35 W 13 16.09 Overcast OVC110 17.3 12.8 75% 76.56 0.0
01 01:15 SW 9 16.09 Overcast OVC110 16.9 13.2 79% 76.53 0.0
01 00:55 SW 7 16.09 Partly Cloudy SCT110 17 13.4 79% 76.53 0.0
01 00:35 SW 13 16.09 Partly Cloudy FEW090 SCT110 16.7 13.9 84% 76.53 0.0
01 00:15 SW 15 14.48 Light Rain FEW055 BKN090 BKN110 16.7 14.1 85% 76.56 0.0
31 23:55 S 26 G 43 16.09 Light Rain FEW075 BKN100 BKN120 17.6 13.5 28 17.6 77% 76.63 0.0
31 23:35 S 35 G 46 16.09 Partly Cloudy and Breezy SCT120 18.3 13.2 72% 76.66 0.0
31 23:15 S 33 G 44 16.09 Mostly Cloudy and Breezy BKN110 20.3 11.6 58% 76.66 0.0
31 22:55 S 24 16.09 Overcast OVC110 21.9 9.1 44% 76.68 0.0
31 22:35 SE 9 16.09 Overcast OVC110 20.2 10.9 55% 76.63 0.0
31 22:15 W 7 14.48 Overcast OVC110 21.8 9.1 44% 76.58 0.0
31 21:55 SW 13 16.09 Overcast OVC110 23.8 8 36% 76.58 0.0
31 21:35 W 22 G 30 16.09 Overcast OVC110 21.8 10.2 48% 76.58 0.0
31 21:15 SW 17 16.09 Overcast OVC100 22.5 9.6 44% 76.56 0.0
31 20:55 SW 15 16.09 Overcast OVC120 22.5 9.9 45% 76.53 0.0
31 20:35 SW 13 16.09 Partly Cloudy SCT120 22.7 9.8 44% 76.5 0.0
31 20:15 SW 11 16.09 Fair CLR 22.9 9.3 42% 76.48 0.0
31 19:55 SW 15 16.09 Fair CLR 23.3 9.3 41% 76.48 0.0
31 19:35 SW 15 16.09 Fair CLR 23 9.6 43% 76.48 0.0
31 19:15 S 11 16.09 Fair CLR 23.4 9.6 42% 76.48 0.0
31 18:55 S 15 16.09 Fair CLR 24.7 9.4 38% 26 76.48 0.0
31 18:35 S 19 16.09 Fair CLR 26 8.9 34% 26 76.48 0.0
31 18:15 S 19 16.09 Fair CLR 27.1 7 28% 26 76.48 0.0
31 17:55 S 11 16.09 Fair CLR 28.9 6.4 30.1 26.3 24% 28 76.48 0.0
31 17:35 SW 13 16.09 Fair CLR 29.1 6.8 24% 28 76.48 0.0
31 16:55 S 17 16.09 Fair CLR 29.5 7 24% 28 76.48 0.0
31 16:35 S 17 16.09 Fair CLR 29.4 7.5 25% 28 76.48 0.0
31 16:15 S 13 16.09 Fair CLR 28.6 7 26% 27 76.48 0.0
31 15:55 SW 19 16.09 Fair CLR 29.7 6.9 24% 28 76.48 0.0
31 15:35 SW 15 G 28 16.09 Fair CLR 30.1 7.3 24% 28 76.5 0.0
31 15:15 SW 20 16.09 Fair CLR 28.9 6.9 25% 28 76.53 0.0
31 14:55 SW 15 G 31 16.09 Fair CLR 29.3 7.4 25% 28 76.56 0.0
31 14:35 S 17 16.09 Fair CLR 28.5 7.3 26% 27 76.58 0.0
31 14:15 S 19 G 33 16.09 Fair CLR 28.9 7.2 25% 28 76.58 0.0
31 13:55 SW 22 G 33 16.09 Fair CLR 28.7 6.6 25% 27 76.61 0.0
31 13:35 SW 24 16.09 Fair CLR 28.7 7.2 26% 27 76.61 0.0
31 13:15 SW 26 16.09 Fair CLR 28.7 7.1 26% 27 76.63 0.0
31 12:55 SW 26 16.09 Fair CLR 27.9 7.8 28% 27 76.66 0.0
31 12:35 W 15 16.09 Fair CLR 28.1 8.1 28% 27 76.66 0.0
31 12:15 W 15 16.09 Fair CLR 26.8 8.5 32% 26 76.66 0.0
31 11:55 W 13 16.09 Fair CLR 26.5 7.8 27.2 12.8 31% 26 76.68 0.0
31 11:35 NW 19 16.09 Fair CLR 26.2 8.4 32% 26 76.68 0.0
31 11:15 NW 17 16.09 Fair CLR 26.1 8.2 32% 26 76.68 0.0
31 10:55 NW 26 16.09 Fair CLR 25 7.9 34% 25 76.68 0.0
31 10:35 NW 15 16.09 Fair CLR 24.9 8.3 35% 25 76.71 0.0
31 10:15 W 13 16.09 Fair CLR 24.1 8.2 36% 25 76.68 0.0
31 09:55 NW 22 16.09 Fair CLR 24.3 7.5 34% 25 76.68 0.0
31 09:35 W 20 16.09 Fair CLR 24.1 7.7 35% 25 76.68 0.0
31 09:15 NW 7 16.09 Fair CLR 22.4 9.1 43% 76.68 0.0
31 08:55 NW 11 16.09 Fair CLR 21.1 8.8 45% 76.68 0.0
31 08:35 W 7 16.09 Fair CLR 20.2 10 52% 76.66 0.0
31 08:15 W 15 14.48 Fair CLR 20.4 9 48% 76.63 0.0
31 07:55 NW 11 14.48 Fair CLR 19 9.3 54% 76.63 0.0
31 07:35 W 15 16.09 Fair CLR 17.7 8.9 57% 76.63 0.0
31 07:15 W 19 14.48 Fair CLR 17.5 8.8 57% 76.58 0.0
31 06:55 W 7 16.09 Fair CLR 14.5 8.5 67% 76.58 0.0
31 06:35 Calm 16.09 Fair CLR 14.4 8.3 67% 76.58 0.0
31 06:15 Calm 16.09 Fair CLR 13 9.6 80% 76.56 0.0
31 05:55 Calm 16.09 Fair CLR 13.2 9.8 15.3 12.3 80% 76.56 0.0
31 05:35 SW 11 16.09 Fair CLR 13.7 9.9 78% 76.56 0.0
31 05:15 S 15 16.09 Fair CLR 12.9 10.1 83% 76.56 0.0
31 04:55 S 11 16.09 A Few Clouds FEW120 12.4 10.5 88% 76.5 0.0
31 04:35 Calm 16.09 Mostly Cloudy BKN110 12.9 10.7 87% 76.5 0.0
31 04:15 S 11 16.09 Overcast OVC110 13.3 10.7 84% 76.5 0.0
31 03:55 Calm 16.09 Mostly Cloudy BKN120 13.6 10.6 82% 76.5 0.0
31 03:35 Vrbl 6 16.09 Mostly Cloudy BKN120 13.5 10.7 83% 76.5 0.0
31 03:15 W 9 16.09 Partly Cloudy SCT120 13 10.9 87% 76.48 0.0
31 02:55 W 7 16.09 Fair CLR 13.1 11 87% 76.45 0.0
31 02:35 W 11 16.09 Fair CLR 13.2 11 87% 76.48 0.0
31 02:15 S 7 16.09 Fair CLR 14.2 10.6 79% 76.45 0.0
31 01:55 SW 7 16.09 Fair CLR 13.3 11.2 87% 76.48 0.0
31 01:35 SW 6 16.09 Fair CLR 13.7 11.5 87% 76.48 0.0
31 01:15 W 6 16.09 Partly Cloudy SCT120 14 11.7 86% 76.5 0.0
31 00:55 Calm 16.09 Partly Cloudy SCT120 14 11.7 86% 76.53 0.0
31 00:35 Calm 16.09 Partly Cloudy SCT120 14.4 11.5 83% 76.53 0.0
31 00:15 SW 9 16.09 Fair CLR 15 11.7 81% 76.53 0.0
30 23:55 Calm 16.09 Fair CLR 15.3 11.9 23.1 14.6 80% 76.53 0.0
30 23:35 W 11 16.09 Fair CLR 15 11.4 79% 76.53 0.0
30 23:15 S 6 16.09 Fair CLR 16 11 72% 76.53 0.0
30 22:55 W 6 16.09 Fair CLR 15.8 11.2 74% 76.56 0.0
30 22:35 Calm 16.09 Fair CLR 16.9 10.5 66% 76.53 0.0
30 22:15 SE 6 16.09 Fair CLR 16.7 10.6 67% 76.53 0.0
30 21:55 W 13 16.09 Fair CLR 16.7 10.6 67% 76.53 0.0
30 21:35 SW 11 16.09 Fair CLR 17.2 10.1 63% 76.5 0.0
30 21:15 SW 15 16.09 Fair CLR 17.4 10 62% 76.5 0.0
30 20:55 Calm 16.09 Fair CLR 17.6 10 61% 76.5 0.0
30 20:35 SW 9 16.09 Fair CLR 18.2 9.8 58% 76.48 0.0
30 20:15 SW 15 16.09 Fair CLR 18.8 9.8 56% 76.45 0.0
30 19:55 S 19 16.09 Fair CLR 19.1 9.5 54% 76.45 0.0
30 19:35 SW 11 16.09 Fair CLR 20.3 9.2 49% 76.45 0.0
30 19:15 SW 15 16.09 Fair CLR 19.5 9.9 54% 76.45 0.0
30 18:55 SW 11 16.09 Fair CLR 20.9 10.1 50% 76.45 0.0
30 18:35 SW 19 16.09 Fair CLR 21.9 9.8 46% 76.48 0.0
30 18:15 W 15 16.09 Fair CLR 22.2 9.8 45% 76.48 0.0
30 17:55 W 24 16.09 Fair CLR 24 9.5 29.3 22.5 40% 25 76.43 0.0
30 17:35 W 22 16.09 Fair CLR 23.8 9.5 40% 76.43 0.0
30 17:15 W 26 16.09 Fair CLR 25.2 9.6 37% 26 76.43 0.0
30 16:55 W 30 G 39 16.09 Fair CLR 24.4 10.1 41% 25 76.45 0.0
30 16:35 W 24 16.09 Fair CLR 24.6 9.7 39% 25 76.45 0.0
30 16:15 W 31 G 43 16.09 A Few Clouds FEW110 23.9 9.5 40% 25 76.45 0.0
30 15:55 W 28 16.09 Mostly Cloudy BKN110 24.8 8.7 36% 25 76.45 0.0
30 15:35 W 39 G 48 14.48 Overcast and Breezy OVC110 24.9 9.2 37% 26 76.48 0.0
30 15:15 W 30 16.09 Overcast OVC110 24.4 10.6 42% 25 76.48 0.0
30 14:55 W 30 11.27 Mostly Cloudy FEW055 BKN100 BKN120 22.7 10.7 47% 76.48 0.0
30 14:35 W 31 G 46 16.09 Mostly Cloudy BKN120 24.9 8.7 36% 26 76.48 0.0
30 14:15 W 37 16.09 Mostly Cloudy and Breezy BKN110 26 8.2 32% 26 76.43 0.0
30 13:55 W 44 G 56 16.09 Fair and Windy CLR 28.8 9.4 30% 28 76.38 0.0
30 13:35 W 48 G 59 16.09 Fair and Windy CLR 28.4 8.5 29% 27 76.38 0.0
30 13:15 W 28 G 39 16.09 Fair CLR 29.3 9.5 29% 28 76.35 0.0
30 12:55 W 28 16.09 Fair CLR 28.1 8.3 29% 27 76.35 0.0
30 12:35 W 30 16.09 Fair CLR 28.6 8.4 28% 27 76.35 0.0
30 12:15 SW 31 16.09 Fair CLR 27.6 8.9 31% 27 76.35 0.0
30 11:55 W 26 16.09 Fair CLR 26.4 9.2 26.4 16.7 34% 26 76.38 0.0
30 11:35 W 24 16.09 Fair CLR 25.2 9.3 37% 26 76.38 0.0
30 11:15 W 20 16.09 Fair CLR 24.2 9.5 39% 25 76.4 0.0
30 10:55 W 20 14.48 Fair CLR 23.7 9.3 40% 76.43 0.0
30 10:35 W 33 G 44 14.48 Fair and Breezy CLR 23.7 8.9 39% 76.43 0.0
30 10:15 W 33 16.09 Fair and Breezy CLR 24.2 9.3 39% 25 76.43 0.0
30 09:55 W 33 16.09 Fair and Breezy CLR 23.8 8.9 39% 76.45 0.0
30 09:35 W 30 G 39 16.09 Fair CLR 24.3 9.5 39% 25 76.43 0.0
30 09:15 W 19 16.09 Fair CLR 23 9.9 44% 76.43 0.0
30 08:55 W 24 16.09 Fair CLR 22.1 9.4 44% 76.4 0.0
30 08:35 SW 19 16.09 Fair CLR 20.6 9.8 50% 76.4 0.0
30 08:15 W 26 16.09 Fair CLR 20.8 9.4 48% 76.4 0.0
30 07:55 W 37 16.09 Fair and Breezy CLR 21.1 9.1 46% 76.38 0.0
30 07:35 W 37 G 48 14.48 Fair and Breezy CLR 20.5 9.2 48% 76.35 0.0
30 07:15 W 24 14.48 Fair CLR 19.2 9.4 53% 76.35 0.0
30 06:55 W 28 14.48 Fair CLR 19.5 9.3 52% 76.38 0.0
30 06:35 W 30 16.09 Fair CLR 19.3 9.4 53% 76.35 0.0
30 06:15 W 13 16.09 A Few Clouds FEW120 17.3 10.6 65% 76.35 0.0
30 05:55 S 13 16.09 Overcast OVC110 15.9 11.9 18.5 15.3 77% 76.35 0.0
30 05:35 S 11 14.48 Mostly Cloudy BKN110 15.8 11.9 78% 76.33 0.0
30 05:15 Calm 16.09 A Few Clouds FEW120 16.4 11.2 72% 76.33 0.0
30 04:55 SW 9 14.48 Light Rain SCT100 BKN120 16.8 11.2 70% 76.3 0.0
30 04:35 SW 15 16.09 Mostly Cloudy FEW090 BKN110 16.9 11.1 69% 76.33 0.0
30 04:15 SW 11 16.09 Mostly Cloudy BKN100 17.1 10.4 65% 76.35 0.0
30 03:55 SW 11 16.09 Overcast OVC100 15.6 11.1 75% 76.33 0.0
30 03:35 S 19 16.09 Overcast OVC110 15.8 10.7 72% 76.33 0.0
30 03:15 S 20 16.09 Mostly Cloudy BKN120 15.9 10.3 70% 76.3 0.0
30 02:55 SW 20 16.09 Fair CLR 17.3 9.3 60% 76.3 0.0
30 02:35 SW 13 16.09 Fair CLR 16.8 10 64% 76.33 0.0
30 02:15 W 9 16.09 Fair CLR 17.6 9.5 59% 76.33 0.0
30 01:55 W 15 16.09 Fair CLR 16.8 10 64% 76.33 0.0
30 01:35 SW 11 16.09 Fair CLR 16.6 10.2 66% 76.33 0.0
30 01:15 SW 13 16.09 Fair CLR 16.6 10.2 66% 76.33 0.0
30 00:55 SW 9 16.09 Fair CLR 16.6 10.7 68% 76.35 0.0
30 00:35 SW 13 16.09 A Few Clouds FEW120 16.6 10.9 69% 76.35 0.0
30 00:15 SW 7 16.09 A Few Clouds FEW120 15.7 11.3 75% 76.33 0.0
29 23:55 SW 11 16.09 Fair CLR 16.2 10.8 22.4 14.5 71% 76.33 0.0
29 23:35 S 7 16.09 Fair CLR 16.2 11 71% 76.35 0.0
29 23:15 S 6 16.09 Fair CLR 14.8 11.1 79% 76.38 0.0
29 22:55 S 11 16.09 Fair CLR 16.5 10.9 70% 76.43 0.0
29 22:35 Calm 16.09 Fair CLR 15.3 11 76% 76.45 0.0
29 22:15 W 9 16.09 Fair CLR 16.2 10.9 71% 76.45 0.0
29 21:55 Calm 16.09 Fair CLR 15.7 11.3 75% 76.48 0.0
29 21:35 W 9 16.09 Fair CLR 15.9 11.5 75% 76.48 0.0
29 21:15 W 13 16.09 Fair CLR 16.8 11.3 70% 76.5 0.0
29 20:55 W 20 16.09 Fair CLR 17.5 11.3 67% 76.5 0.0
29 20:35 NW 26 16.09 Fair CLR 17.9 11.2 65% 76.5 0.0
29 20:15 W 33 G 44 16.09 Partly Cloudy and Breezy SCT110 18.1 11 63% 76.5 0.0
29 19:55 W 37 G 48 16.09 Mostly Cloudy and Breezy BKN100 18 11.1 64% 76.5 0.0
29 19:35 NW 44 G 59 12.87 Mostly Cloudy and Windy BKN100 17.8 11.2 65% 76.5 0.0
29 19:15 NW 41 G 70 9.66 Mostly Cloudy with Haze and Breezy BKN100 18.3 12.4 69% 76.56 0.0
29 18:55 NW 35 G 43 12.87 Light Rain and Breezy BKN120 22 14.1 61% 76.53 0.0
29 18:35 W 15 14.48 Mostly Cloudy BKN110 21.4 15.5 69% 76.45 0.0
Date Time (mdt) Wind (kph) Vis. (km) Weather Sky Cond. Air Dwpt Max. Min. Relative Humidity Wind Chill (°C) Heat Index (°C) altimeter (cm) sea level (mb) 1 hr 3 hr 6 hr
6 hour
Temperature (ºC) Pressure Precipitation (cm)